Silia — WDG2034 — position and weather

sailwx.info

Track history (hours):
 
Tides and Currents Weather Stations Pressure Air Temp Water Temp Dewpoint Dewpoint Depression Visibility Wind Speed Wind Dir Waves Ship Positions

Silia

Owner: greger pacific marine, napa, CA. More information available from US FCC via Universal Licensing System and Coast Guard Vessel Documentation Center.

Last reported at 2015-Jan-24 19:21 UTC. Time now 2015-Jan-26 00:28 UTC.
Position N 38°07' W 122°17'.

Length 17 m; draft 3 m.

Type: Tug. MMSI: 367511460.

Date/timePositionNaut miles runAvg speedWind from/ knotsBaromVisibWave heightAir tempDewpointWater temp
2015-Jan-24 19:21N 38°07' W 122°17'1 1.6
2015-Jan-24 18:29N 38°05' W 122°16'0 0.0
2015-Jan-24 16:26N 38°05' W 122°15'4 0.1
2015-Jan-22 20:06N 38°03' W 122°20'5 8.7
2015-Jan-22 19:33N 38°00' W 122°25'8 8.1
2015-Jan-22 18:33N 37°52' W 122°24'5 5.4
2015-Jan-22 17:34N 37°49' W 122°30'4 3.5
2015-Jan-22 16:33N 37°49' W 122°25'0 0.0
2015-Jan-22 15:33N 37°49' W 122°25'0 0.0
2015-Jan-22 14:33N 37°49' W 122°25'0 0.0
2015-Jan-22 13:33N 37°49' W 122°25'0 0.0
2015-Jan-22 12:33N 37°49' W 122°25'0 0.0
2015-Jan-22 11:33N 37°49' W 122°25'0 0.0
2015-Jan-22 10:33N 37°49' W 122°25'0 0.0
2015-Jan-22 09:33N 37°49' W 122°25'0 0.0
2015-Jan-22 08:33N 37°49' W 122°25'0 0.0
2015-Jan-22 07:33N 37°49' W 122°25'0 0.0
2015-Jan-22 06:33N 37°49' W 122°25'0 0.0
2015-Jan-22 05:33N 37°49' W 122°25'0 0.0
2015-Jan-22 04:33N 37°49' W 122°25'0 0.0
2015-Jan-22 03:34N 37°49' W 122°25'8 7.5
2015-Jan-22 02:33N 37°56' W 122°27'14 0.3
2015-Jan-20 01:23N 38°03' W 122°11'3 2.8
2015-Jan-20 00:12N 38°05' W 122°15'5 7.4
2015-Jan-19 23:29N 38°09' W 122°18'  
2015-Jan-15 18:05N 38°03' W 122°18'1 2.3
2015-Jan-15 17:33N 38°04' W 122°16'1 0.9
2015-Jan-15 16:13N 38°04' W 122°15'  
Track history (hours):
 
Tides and Currents Weather Stations Pressure Air Temp Water Temp Dewpoint Dewpoint Depression Visibility Wind Speed Wind Dir Waves Ship Positions

Silia

Owner: greger pacific marine, napa, CA. More information available from US FCC via Universal Licensing System and Coast Guard Vessel Documentation Center.

Last reported at 2015-Jan-24 19:21 UTC. Time now 2015-Jan-26 00:28 UTC.
Position N 38°07' W 122°17'.

Length 17 m; draft 3 m.

Type: Tug. MMSI: 367511460.

Date/timePositionNaut miles runAvg speedWind from/ knotsBaromVisibWave heightAir tempDewpointWater temp
2015-Jan-24 19:21N 38°07' W 122°17'1 1.6
2015-Jan-24 18:29N 38°05' W 122°16'0 0.0
2015-Jan-24 16:26N 38°05' W 122°15'4 0.1
2015-Jan-22 20:06N 38°03' W 122°20'5 8.7
2015-Jan-22 19:33N 38°00' W 122°25'8 8.1
2015-Jan-22 18:33N 37°52' W 122°24'5 5.4
2015-Jan-22 17:34N 37°49' W 122°30'4 3.5
2015-Jan-22 16:33N 37°49' W 122°25'0 0.0
2015-Jan-22 15:33N 37°49' W 122°25'0 0.0
2015-Jan-22 14:33N 37°49' W 122°25'0 0.0
2015-Jan-22 13:33N 37°49' W 122°25'0 0.0
2015-Jan-22 12:33N 37°49' W 122°25'0 0.0
2015-Jan-22 11:33N 37°49' W 122°25'0 0.0
2015-Jan-22 10:33N 37°49' W 122°25'0 0.0
2015-Jan-22 09:33N 37°49' W 122°25'0 0.0
2015-Jan-22 08:33N 37°49' W 122°25'0 0.0
2015-Jan-22 07:33N 37°49' W 122°25'0 0.0
2015-Jan-22 06:33N 37°49' W 122°25'0 0.0
2015-Jan-22 05:33N 37°49' W 122°25'0 0.0
2015-Jan-22 04:33N 37°49' W 122°25'0 0.0
2015-Jan-22 03:34N 37°49' W 122°25'8 7.5
2015-Jan-22 02:33N 37°56' W 122°27'14 0.3
2015-Jan-20 01:23N 38°03' W 122°11'3 2.8
2015-Jan-20 00:12N 38°05' W 122°15'5 7.4
2015-Jan-19 23:29N 38°09' W 122°18'  
2015-Jan-15 18:05N 38°03' W 122°18'1 2.3
2015-Jan-15 17:33N 38°04' W 122°16'1 0.9
2015-Jan-15 16:13N 38°04' W 122°15'  

Dump ship's entire track history